Time;durP1;ratioP1;P1;durP2;ratioP2;P2;SDS_P1;SDS_P2;PMS_P1;PMS_P2;Temp;Humidity;BMP_temperature;BMP_pressure;BME280_temperature;BME280_humidity;BME280_pressure;Samples;Min_cycle;Max_cycle;Signal;HPM_P1;HPM_P2
2022/11/16 00:01:55;;;;;;;2.53;2.05;;;17.80;80.70;;;;;;4957371;28;20189;-69
2022/11/16 00:04:20;;;;;;;3.15;2.10;;;17.80;80.70;;;;;;4957615;28;20185;-69
2022/11/16 00:06:48;;;;;;;2.85;2.10;;;17.80;80.80;;;;;;4957460;28;20565;-70
2022/11/16 00:09:25;;;;;;;4.03;3.00;;;17.80;80.70;;;;;;4941600;28;20200;-70
2022/11/16 00:11:56;;;;;;;2.03;1.83;;;17.80;80.70;;;;;;4957210;28;20220;-69
2022/11/16 00:14:25;;;;;;;4.45;2.70;;;17.80;80.60;;;;;;4973446;28;20328;-69
2022/11/16 00:16:51;;;;;;;2.72;2.33;;;17.80;80.70;;;;;;4973131;28;20216;-69
2022/11/16 00:19:17;;;;;;;2.35;1.88;;;17.80;80.70;;;;;;4974559;28;20265;-70
2022/11/16 00:21:43;;;;;;;3.20;2.47;;;17.80;80.70;;;;;;4973299;28;20186;-70
2022/11/16 00:24:15;;;;;;;2.30;2.10;;;17.80;80.70;;;;;;4956959;28;20224;-70
2022/11/16 00:26:41;;;;;;;4.47;2.40;;;17.80;80.80;;;;;;4973201;28;20272;-70
2022/11/16 00:29:17;;;;;;;3.65;2.08;;;17.80;80.70;;;;;;4957083;28;20657;-70
2022/11/16 00:31:44;;;;;;;2.53;2.20;;;17.80;80.70;;;;;;4956881;28;20696;-69
2022/11/16 00:34:10;;;;;;;2.72;2.28;;;17.80;80.90;;;;;;4956932;28;20205;-69
2022/11/16 00:36:36;;;;;;;2.90;2.40;;;17.80;80.80;;;;;;4972861;28;20209;-70
2022/11/16 00:39:02;;;;;;;2.65;2.17;;;17.80;80.80;;;;;;4940949;28;20650;-70
2022/11/16 00:41:28;;;;;;;2.08;1.88;;;17.80;80.80;;;;;;4956822;28;20189;-70
2022/11/16 00:43:55;;;;;;;2.63;2.15;;;17.80;81.60;;;;;;4956994;28;20185;-70
2022/11/16 00:46:21;;;;;;;2.13;1.88;;;17.80;80.90;;;;;;4956752;28;20212;-70
2022/11/16 00:48:47;;;;;;;3.20;2.28;;;17.80;80.90;;;;;;4972914;28;20182;-69
2022/11/16 00:51:13;;;;;;;3.10;2.33;;;17.80;80.80;;;;;;4972744;28;20196;-69
2022/11/16 00:53:40;;;;;;;4.30;2.03;;;17.80;80.90;;;;;;4956777;28;20267;-70
2022/11/16 00:56:06;;;;;;;2.20;2.00;;;17.80;80.80;;;;;;4956524;28;20209;-69
2022/11/16 00:58:38;;;;;;;2.25;2.00;;;17.80;80.90;;;;;;4957678;28;20189;-69
2022/11/16 01:01:09;;;;;;;2.45;2.15;;;17.80;81.10;;;;;;4957192;28;20591;-70
2022/11/16 01:03:36;;;;;;;3.00;1.88;;;17.80;81.10;;;;;;4972582;28;20261;-70
2022/11/16 01:06:05;;;;;;;2.85;2.35;;;17.80;80.90;;;;;;4956427;28;20201;-69
2022/11/16 01:08:33;;;;;;;2.80;1.90;;;17.80;80.90;;;;;;4956377;28;20195;-69
2022/11/16 01:12:07;;;;;;;2.35;2.15;;;17.80;80.90;;;;;;4972426;28;20680;-69
2022/11/16 01:13:47;;;;;;;3.05;1.70;;;17.80;81.00;;;;;;4956440;28;20214;-70
2022/11/16 01:16:18;;;;;;;2.13;1.90;;;17.80;81.00;;;;;;4956213;28;20221;-70
2022/11/16 01:18:50;;;;;;;2.65;2.17;;;17.80;81.80;;;;;;4972593;28;20185;-70
2022/11/16 01:21:17;;;;;;;2.55;2.00;;;17.80;81.00;;;;;;4962315;28;20236;-69
2022/11/16 01:23:43;;;;;;;5.25;2.67;;;17.80;81.00;;;;;;4968544;28;20335;-69
2022/11/16 01:26:09;;;;;;;3.05;2.00;;;17.80;81.00;;;;;;4972067;28;20220;-69
2022/11/16 01:28:35;;;;;;;3.08;2.17;;;17.80;81.10;;;;;;4970149;28;20283;-69
2022/11/16 01:31:02;;;;;;;2.20;1.60;;;17.80;81.00;;;;;;4959383;28;20221;-69
2022/11/16 01:33:30;;;;;;;2.42;2.10;;;17.80;81.00;;;;;;4991854;28;20212;-70
2022/11/16 01:35:56;;;;;;;2.03;1.83;;;17.80;81.00;;;;;;4975879;28;20246;-69
2022/11/16 01:38:23;;;;;;;1.80;1.65;;;17.80;81.00;;;;;;4963688;28;20184;-69
2022/11/16 01:40:49;;;;;;;2.42;1.83;;;17.80;81.00;;;;;;4963546;28;20192;-69
2022/11/16 01:43:23;;;;;;;2.70;1.95;;;17.80;80.90;;;;;;4979349;28;20576;-70
2022/11/16 01:45:50;;;;;;;1.92;1.70;;;17.80;81.00;;;;;;4963366;28;20245;-70
2022/11/16 01:48:27;;;;;;;3.15;2.03;;;17.80;81.00;;;;;;4963465;28;20193;-69
2022/11/16 01:50:56;;;;;;;3.47;2.08;;;17.80;81.00;;;;;;4963339;28;20234;-69
2022/11/16 01:53:23;;;;;;;2.65;1.60;;;17.80;81.10;;;;;;4995548;28;20291;-69
2022/11/16 01:55:52;;;;;;;2.33;1.90;;;17.80;81.10;;;;;;4963325;28;20211;-69
2022/11/16 01:58:37;;;;;;;2.88;2.00;;;17.80;81.10;;;;;;4979465;28;20188;-69
2022/11/16 02:01:23;;;;;;;3.03;1.98;;;17.80;81.10;;;;;;4981496;28;20199;-70
2022/11/16 02:03:53;;;;;;;2.75;2.10;;;17.80;81.10;;;;;;4980046;28;20188;-69
2022/11/16 02:06:43;;;;;;;2.20;2.00;;;17.80;81.00;;;;;;4963028;28;20289;-69
2022/11/16 02:09:54;;;;;;;1.90;1.73;;;17.80;81.00;;;;;;4995280;28;20185;-69
2022/11/16 02:13:11;;;;;;;2.92;1.95;;;17.80;81.10;;;;;;4978853;28;20219;-70
2022/11/16 02:16:04;;;;;;;2.10;1.90;;;17.80;81.10;;;;;;4978724;28;20189;-69
2022/11/16 02:18:45;;;;;;;2.10;1.70;;;17.80;81.10;;;;;;4963210;28;20173;-69
2022/11/16 02:21:19;;;;;;;2.67;1.75;;;17.80;81.10;;;;;;4994840;28;20176;-69
2022/11/16 02:24:13;;;;;;;1.85;1.70;;;17.80;81.10;;;;;;4994903;28;20199;-70
2022/11/16 02:27:02;;;;;;;2.15;1.95;;;17.80;81.10;;;;;;5013106;23;20246;-68
2022/11/16 02:29:38;;;;;;;2.75;2.10;;;17.80;81.20;;;;;;5050838;28;20220;-68
2022/11/16 02:32:11;;;;;;;1.88;1.70;;;17.80;81.20;;;;;;5017705;28;20692;-69
2022/11/16 02:34:43;;;;;;;2.08;1.70;;;17.80;81.10;;;;;;5034129;28;20252;-69
2022/11/16 02:37:15;;;;;;;2.20;1.85;;;17.80;81.10;;;;;;5017886;28;20207;-68
2022/11/16 02:39:44;;;;;;;1.70;1.60;;;17.80;81.20;;;;;;5050805;28;20249;-68
2022/11/16 02:42:21;;;;;;;2.10;1.85;;;17.80;81.20;;;;;;5033763;28;20195;-68
2022/11/16 02:44:53;;;;;;;1.52;1.42;;;17.80;81.30;;;;;;5034122;28;20682;-68
2022/11/16 02:47:25;;;;;;;2.15;1.77;;;17.80;81.30;;;;;;5034558;28;20226;-69
2022/11/16 02:49:59;;;;;;;2.72;1.88;;;17.80;81.30;;;;;;5034071;28;20175;-68
2022/11/16 02:52:27;;;;;;;2.42;1.65;;;17.80;81.30;;;;;;5034936;28;20167;-68
2022/11/16 02:54:53;;;;;;;2.20;2.00;;;17.80;81.30;;;;;;5033837;28;20211;-68
2022/11/16 02:57:22;;;;;;;1.70;1.60;;;17.80;81.40;;;;;;5033565;28;20207;-69
2022/11/16 02:59:53;;;;;;;1.98;1.77;;;17.80;81.40;;;;;;5033700;28;20190;-69
2022/11/16 03:02:49;;;;;;;1.83;1.70;;;17.80;81.30;;;;;;5034797;28;20250;-69
2022/11/16 03:05:32;;;;;;;2.30;1.73;;;17.80;81.40;;;;;;5033775;28;20689;-68
2022/11/16 03:08:29;;;;;;;2.30;1.85;;;17.80;81.40;;;;;;5033732;28;20242;-69
2022/11/16 03:14:06;;;;;;;1.67;1.52;;;17.80;81.40;;;;;;5032911;28;20213;-68
2022/11/16 03:16:43;;;;;;;2.20;1.70;;;17.80;81.30;;;;;;5033311;28;20285;-69
2022/11/16 03:19:15;;;;;;;2.22;2.00;;;17.80;82.20;;;;;;5033226;28;20211;-69
2022/11/16 03:21:55;;;;;;;2.45;1.70;;;17.80;81.50;;;;;;5033081;28;20612;-68
2022/11/16 03:24:22;;;;;;;2.35;1.83;;;17.80;81.50;;;;;;5033404;28;20207;-69
2022/11/16 03:27:22;;;;;;;2.75;1.75;;;17.80;81.40;;;;;;5033108;28;20257;-68
2022/11/16 03:30:09;;;;;;;2.03;1.83;;;17.80;81.50;;;;;;5033130;28;20187;-69
2022/11/16 03:33:07;;;;;;;2.22;2.03;;;17.80;81.50;;;;;;5041626;28;20223;-68
2022/11/16 03:35:58;;;;;;;2.10;1.60;;;17.80;81.40;;;;;;5025262;28;20234;-69
2022/11/16 03:38:27;;;;;;;1.98;1.77;;;17.80;81.50;;;;;;5013336;28;20303;-68
2022/11/16 03:41:00;;;;;;;1.65;1.50;;;17.80;81.50;;;;;;5030713;28;20314;-70
2022/11/16 03:43:27;;;;;;;1.88;1.60;;;17.80;81.50;;;;;;5032418;28;20286;-68
2022/11/16 03:45:55;;;;;;;1.92;1.73;;;17.80;81.50;;;;;;5048901;28;20188;-69
2022/11/16 03:48:20;;;;;;;1.83;1.58;;;17.80;81.50;;;;;;5049096;28;20214;-69
2022/11/16 03:50:46;;;;;;;1.52;1.30;;;17.80;81.50;;;;;;5032728;28;20195;-69
2022/11/16 03:53:13;;;;;;;1.50;1.40;;;17.70;81.50;;;;;;5048770;28;20297;-69
2022/11/16 03:55:39;;;;;;;1.65;1.42;;;17.80;81.60;;;;;;5032148;28;20294;-69
2022/11/16 03:58:05;;;;;;;1.70;1.38;;;17.80;81.60;;;;;;5048814;28;20214;-69
2022/11/16 04:00:32;;;;;;;1.45;1.30;;;17.70;81.50;;;;;;5048226;28;20175;-68
2022/11/16 04:03:05;;;;;;;2.95;1.60;;;17.70;81.50;;;;;;5032241;28;20191;-69
2022/11/16 04:25:10;;;;;;;1.52;1.40;;;17.80;81.80;;;;;;5028904;28;20219;-69
2022/11/16 04:30:22;;;;;;;1.23;1.15;;;17.80;81.80;;;;;;5028756;28;20183;-68
2022/11/16 04:38:17;;;;;;;1.52;1.42;;;17.80;81.90;;;;;;5028736;28;20303;-68
2022/11/16 04:40:43;;;;;;;1.60;1.50;;;17.80;81.90;;;;;;5011990;28;20267;-68
2022/11/16 04:43:11;;;;;;;1.58;1.48;;;17.80;81.90;;;;;;5012928;28;20184;-69
2022/11/16 04:48:31;;;;;;;1.40;1.30;;;17.80;81.90;;;;;;5028359;28;20671;-68
2022/11/16 04:50:58;;;;;;;1.25;1.15;;;17.70;81.80;;;;;;5011852;28;20629;-68
2022/11/16 04:53:25;;;;;;;1.30;1.20;;;17.80;81.90;;;;;;5011720;28;20707;-69
2022/11/16 04:55:59;;;;;;;1.10;1.00;;;17.80;81.80;;;;;;5028430;28;20238;-69
2022/11/16 04:58:25;;;;;;;1.88;1.40;;;17.80;81.90;;;;;;5011796;28;20589;-69
2022/11/16 05:00:51;;;;;;;1.27;1.17;;;17.70;81.90;;;;;;5011990;28;20173;-68
2022/11/16 05:03:16;;;;;;;1.30;1.20;;;17.70;81.90;;;;;;5028054;28;20214;-69
2022/11/16 05:05:43;;;;;;;1.35;1.23;;;17.80;82.00;;;;;;5012153;28;20246;-69
2022/11/16 05:08:09;;;;;;;1.13;1.10;;;17.70;82.10;;;;;;5011391;28;20208;-69
2022/11/16 05:10:35;;;;;;;1.27;1.17;;;17.80;82.20;;;;;;5028214;28;20219;-69
2022/11/16 05:13:01;;;;;;;1.90;1.40;;;17.80;82.20;;;;;;5011289;28;20216;-69
2022/11/16 05:15:27;;;;;;;1.45;1.33;;;17.70;82.00;;;;;;5011823;28;20196;-69
2022/11/16 05:17:54;;;;;;;1.30;1.20;;;17.80;82.10;;;;;;5011504;28;20702;-69
2022/11/16 05:24:32;;;;;;;1.63;1.50;;;17.70;82.10;;;;;;5027625;28;20246;-69
2022/11/16 05:25:54;;;;;;;1.08;1.00;;;17.80;82.10;;;;;;5011523;28;20211;-69
2022/11/16 05:28:19;;;;;;;1.23;1.13;;;17.70;82.10;;;;;;5011198;28;20215;-69
2022/11/16 05:30:45;;;;;;;1.23;1.13;;;17.70;82.10;;;;;;5027708;28;20210;-68
2022/11/16 05:33:15;;;;;;;1.30;1.20;;;17.80;82.20;;;;;;5010881;28;20216;-68
2022/11/16 05:35:41;;;;;;;1.58;1.48;;;17.80;82.20;;;;;;5011606;28;20164;-68
2022/11/16 05:38:07;;;;;;;1.63;1.48;;;17.70;82.10;;;;;;5011103;28;20219;-68
2022/11/16 05:40:37;;;;;;;1.30;1.20;;;17.70;82.10;;;;;;5012142;28;20169;-69
2022/11/16 05:43:03;;;;;;;1.40;1.30;;;17.70;82.10;;;;;;5011307;28;20195;-69
2022/11/16 05:45:33;;;;;;;1.10;1.10;;;17.80;82.20;;;;;;5011233;28;20168;-69
2022/11/16 05:48:00;;;;;;;1.30;1.20;;;17.80;82.20;;;;;;5027333;28;20605;-68
2022/11/16 05:50:26;;;;;;;1.30;1.20;;;17.80;82.20;;;;;;5011200;28;20192;-69
2022/11/16 05:53:04;;;;;;;1.25;1.15;;;17.70;82.10;;;;;;5010830;28;20187;-69
2022/11/16 05:55:29;;;;;;;1.30;1.20;;;17.70;82.10;;;;;;5011417;28;20184;-69
2022/11/16 05:57:55;;;;;;;1.15;1.05;;;17.70;82.20;;;;;;5011233;28;20212;-69
2022/11/16 06:00:21;;;;;;;1.00;1.00;;;17.70;82.10;;;;;;5027520;28;20179;-69
2022/11/16 06:02:50;;;;;;;1.15;1.10;;;17.70;82.10;;;;;;5027246;28;20184;-68
2022/11/16 06:05:23;;;;;;;1.58;1.48;;;17.70;82.10;;;;;;5012035;28;20184;-70
2022/11/16 06:07:49;;;;;;;1.30;1.20;;;17.70;82.10;;;;;;5011037;28;20228;-69
2022/11/16 06:10:15;;;;;;;1.58;1.10;;;17.70;82.10;;;;;;5010978;28;20190;-69
2022/11/16 06:12:43;;;;;;;1.40;1.30;;;17.70;82.10;;;;;;5027424;28;20183;-70
2022/11/16 06:15:09;;;;;;;1.17;1.08;;;17.70;82.10;;;;;;5004803;28;20203;-69
2022/11/16 06:17:35;;;;;;;1.45;1.17;;;17.70;82.10;;;;;;5027477;28;20199;-69
2022/11/16 06:20:01;;;;;;;1.42;1.10;;;17.80;82.20;;;;;;5030227;28;20183;-69
2022/11/16 06:22:27;;;;;;;1.10;0.90;;;17.80;82.20;;;;;;5030418;28;20176;-69
2022/11/16 06:24:53;;;;;;;1.65;1.17;;;17.70;82.30;;;;;;5048875;28;20199;-69
2022/11/16 06:27:19;;;;;;;1.08;1.00;;;17.70;82.10;;;;;;5032024;28;20211;-69
2022/11/16 06:29:45;;;;;;;0.93;0.90;;;17.70;82.30;;;;;;5031859;28;20571;-69
2022/11/16 06:32:11;;;;;;;1.20;1.10;;;17.70;82.40;;;;;;5033253;28;20222;-69
2022/11/16 06:34:37;;;;;;;1.25;1.15;;;17.70;82.40;;;;;;5033265;28;20282;-69
2022/11/16 06:37:04;;;;;;;1.23;1.13;;;17.70;82.50;;;;;;5033329;28;20218;-69
2022/11/16 06:39:30;;;;;;;1.20;0.98;;;17.70;82.40;;;;;;5033361;28;20274;-71
2022/11/16 06:41:56;;;;;;;1.17;1.08;;;17.80;82.50;;;;;;5033325;28;20207;-69
2022/11/16 06:44:22;;;;;;;2.67;1.42;;;17.70;82.50;;;;;;5033581;28;20184;-70
2022/11/16 06:46:55;;;;;;;1.38;1.17;;;17.70;82.40;;;;;;5033620;28;20199;-69
2022/11/16 06:49:22;;;;;;;1.40;0.90;;;17.70;82.40;;;;;;5033565;28;20211;-68
2022/11/16 06:51:50;;;;;;;1.23;1.10;;;17.70;82.40;;;;;;5033273;28;20222;-69
2022/11/16 06:54:16;;;;;;;1.50;1.10;;;17.70;82.50;;;;;;5033177;28;20211;-69
2022/11/16 06:56:42;;;;;;;1.33;1.13;;;17.70;82.50;;;;;;5033169;28;20209;-69
2022/11/16 06:59:07;;;;;;;2.08;1.10;;;17.70;82.60;;;;;;5033242;28;20183;-69
2022/11/16 07:01:34;;;;;;;1.77;1.25;;;17.70;82.50;;;;;;5032967;28;20197;-69
2022/11/16 07:04:05;;;;;;;1.48;1.10;;;17.70;82.50;;;;;;5033202;28;20183;-69
2022/11/16 07:06:31;;;;;;;2.28;1.00;;;17.70;82.50;;;;;;5033164;28;20211;-69
2022/11/16 07:08:58;;;;;;;3.00;1.27;;;17.70;82.60;;;;;;5033049;28;20179;-69
2022/11/16 07:11:28;;;;;;;1.42;1.33;;;17.70;82.50;;;;;;5032764;28;20190;-69
2022/11/16 07:13:54;;;;;;;2.85;1.20;;;17.70;82.50;;;;;;5033090;28;20218;-69
2022/11/16 07:16:20;;;;;;;3.10;1.40;;;17.70;82.60;;;;;;5032956;28;20198;-69
2022/11/16 07:18:58;;;;;;;0.90;0.90;;;17.70;82.60;;;;;;5031909;28;20187;-69
2022/11/16 07:21:25;;;;;;;1.90;1.13;;;17.70;82.60;;;;;;5012981;28;20184;-69
2022/11/16 07:23:53;;;;;;;1.00;1.00;;;17.70;82.60;;;;;;5012924;28;20195;-69
2022/11/16 07:26:20;;;;;;;1.67;1.30;;;17.70;82.60;;;;;;5012784;28;20291;-70
2022/11/16 07:28:54;;;;;;;1.05;0.95;;;17.70;82.70;;;;;;5014797;28;20260;-69
2022/11/16 07:31:21;;;;;;;1.85;0.93;;;17.70;82.50;;;;;;5032705;28;20278;-69
2022/11/16 07:34:07;;;;;;;1.10;1.10;;;17.70;82.50;;;;;;5046483;28;20210;-69
2022/11/16 07:36:45;;;;;;;0.75;0.75;;;17.70;82.60;;;;;;5032449;28;20214;-69
2022/11/16 07:39:11;;;;;;;1.88;1.10;;;17.70;82.60;;;;;;5049073;28;20187;-70
2022/11/16 07:41:38;;;;;;;1.55;1.15;;;17.70;82.60;;;;;;5048851;28;20187;-69
2022/11/16 07:44:12;;;;;;;2.08;1.40;;;17.70;82.60;;;;;;5033182;28;20213;-69
2022/11/16 07:46:40;;;;;;;1.25;1.15;;;17.70;82.60;;;;;;5032286;28;20211;-69
2022/11/16 07:49:13;;;;;;;1.35;1.25;;;17.70;82.60;;;;;;5032298;28;20209;-69
2022/11/16 07:51:46;;;;;;;1.42;1.33;;;17.80;82.80;;;;;;5032194;28;20572;-69
2022/11/16 07:54:29;;;;;;;1.23;1.10;;;17.70;82.70;;;;;;5032174;28;20203;-69
2022/11/16 07:56:55;;;;;;;2.08;1.30;;;17.70;82.70;;;;;;5032144;28;20257;-69
2022/11/16 07:59:21;;;;;;;1.80;1.30;;;17.70;82.80;;;;;;5032063;28;20278;-69
2022/11/16 08:01:48;;;;;;;1.30;1.20;;;17.70;82.70;;;;;;5031936;28;20695;-69
2022/11/16 08:04:16;;;;;;;1.13;1.02;;;17.70;82.80;;;;;;5032071;28;20187;-69
2022/11/16 08:06:43;;;;;;;1.20;1.05;;;17.70;82.70;;;;;;5031889;28;20203;-69
2022/11/16 08:09:09;;;;;;;1.35;1.10;;;17.70;82.80;;;;;;5031951;28;20230;-69
2022/11/16 08:11:35;;;;;;;1.92;1.30;;;17.70;82.80;;;;;;5031583;28;20191;-69
2022/11/16 08:14:01;;;;;;;1.23;1.08;;;17.70;82.80;;;;;;5034597;28;20215;-69
2022/11/16 08:16:28;;;;;;;1.33;1.15;;;17.70;82.80;;;;;;5031816;28;20202;-69
2022/11/16 08:19:03;;;;;;;1.75;1.10;;;17.70;82.80;;;;;;5028721;28;20253;-69
2022/11/16 08:21:29;;;;;;;1.33;1.17;;;17.70;82.90;;;;;;5031513;28;20203;-69
2022/11/16 08:23:55;;;;;;;1.20;1.02;;;17.70;82.90;;;;;;5031643;28;20183;-69
2022/11/16 08:29:03;;;;;;;2.65;1.33;;;17.70;82.90;;;;;;5009885;28;20331;-71
2022/11/16 08:31:33;;;;;;;1.50;1.27;;;17.70;83.00;;;;;;5010992;28;20192;-71
2022/11/16 08:34:14;;;;;;;1.25;1.15;;;17.70;83.00;;;;;;4977791;28;20220;-71
2022/11/16 08:36:43;;;;;;;1.27;1.17;;;17.70;83.00;;;;;;4978244;28;20184;-71
2022/11/16 08:39:09;;;;;;;1.30;1.20;;;17.70;83.00;;;;;;5011633;28;20184;-71
2022/11/16 08:41:36;;;;;;;1.42;1.30;;;17.70;83.70;;;;;;5011414;28;20225;-71
2022/11/16 08:44:04;;;;;;;3.20;1.33;;;17.70;83.00;;;;;;5011414;28;20249;-71
2022/11/16 08:46:31;;;;;;;2.60;1.30;;;17.70;83.00;;;;;;5011015;28;20192;-71
2022/11/16 08:49:09;;;;;;;1.45;1.10;;;17.70;83.10;;;;;;5011591;28;20179;-71
2022/11/16 08:51:35;;;;;;;3.30;1.30;;;17.70;83.10;;;;;;5011213;28;20188;-71
2022/11/16 08:54:05;;;;;;;1.45;1.20;;;17.70;83.10;;;;;;5011266;28;20212;-71
2022/11/16 08:56:32;;;;;;;1.52;1.20;;;17.70;83.10;;;;;;5011459;28;20652;-71
2022/11/16 08:58:58;;;;;;;1.90;1.30;;;17.70;83.10;;;;;;5011641;28;20207;-71
2022/11/16 09:01:27;;;;;;;2.15;1.23;;;17.80;83.10;;;;;;5010996;28;20204;-68
2022/11/16 09:03:54;;;;;;;1.48;1.35;;;17.80;83.00;;;;;;5012293;28;20184;-71
2022/11/16 09:06:21;;;;;;;1.42;1.20;;;17.80;82.90;;;;;;5011296;28;20184;-71
2022/11/16 09:08:47;;;;;;;1.15;0.93;;;17.80;82.90;;;;;;5010916;28;20217;-71
2022/11/16 09:11:17;;;;;;;1.20;1.10;;;17.80;82.90;;;;;;5011096;28;20195;-71
2022/11/16 09:13:45;;;;;;;1.30;0.90;;;17.80;82.90;;;;;;5010989;28;20215;-71
2022/11/16 09:16:14;;;;;;;1.27;1.17;;;17.80;82.90;;;;;;5011078;28;20231;-71
2022/11/16 09:18:40;;;;;;;1.40;1.10;;;17.80;82.90;;;;;;5010981;28;20203;-71
2022/11/16 09:21:06;;;;;;;2.08;1.10;;;17.80;82.80;;;;;;5011067;28;20212;-71
2022/11/16 09:23:31;;;;;;;1.50;1.20;;;17.80;82.70;;;;;;5011921;28;20188;-71
2022/11/16 09:26:01;;;;;;;1.58;1.20;;;17.80;82.80;;;;;;5010984;28;20188;-71
2022/11/16 09:28:27;;;;;;;1.35;1.20;;;17.80;82.80;;;;;;5010927;28;20227;-71
2022/11/16 09:30:53;;;;;;;1.73;1.00;;;17.80;82.80;;;;;;5014860;28;20211;-71
2022/11/16 09:33:18;;;;;;;1.10;1.00;;;17.80;82.90;;;;;;5010656;28;20224;-71
2022/11/16 09:35:45;;;;;;;1.58;1.00;;;17.80;82.90;;;;;;5012145;28;20188;-71
2022/11/16 09:38:12;;;;;;;1.00;0.90;;;17.80;82.80;;;;;;5010609;28;20288;-71
2022/11/16 09:40:41;;;;;;;2.08;1.08;;;17.80;82.80;;;;;;4994486;28;20185;-71
2022/11/16 09:43:52;;;;;;;0.77;0.77;;;17.80;82.80;;;;;;5010777;28;20184;-71
2022/11/16 09:46:46;;;;;;;0.93;0.82;;;17.80;82.80;;;;;;5003171;28;20202;-71
2022/11/16 09:49:38;;;;;;;1.13;1.02;;;17.90;82.80;;;;;;5010976;28;20188;-71
2022/11/16 09:52:17;;;;;;;0.88;0.88;;;17.90;82.70;;;;;;5010559;28;20199;-71
2022/11/16 09:54:46;;;;;;;1.50;1.00;;;17.90;82.60;;;;;;5010583;28;20211;-71
2022/11/16 09:57:17;;;;;;;1.17;1.00;;;17.90;82.60;;;;;;5012254;28;20571;-71
2022/11/16 09:59:50;;;;;;;1.02;0.80;;;17.80;82.40;;;;;;5014780;28;20188;-71
2022/11/16 10:02:28;;;;;;;0.80;0.80;;;17.90;82.60;;;;;;5014552;28;20192;-71
2022/11/16 10:05:43;;;;;;;0.93;0.90;;;17.90;82.40;;;;;;5014495;28;20194;-71
2022/11/16 10:08:16;;;;;;;0.90;0.90;;;17.80;82.40;;;;;;4997556;28;20212;-71
2022/11/16 10:11:42;;;;;;;1.55;1.00;;;17.80;82.20;;;;;;5015806;28;20215;-71
2022/11/16 10:14:37;;;;;;;1.02;0.80;;;17.90;82.40;;;;;;4973206;28;20234;-71
2022/11/16 10:17:33;;;;;;;0.90;0.90;;;17.90;82.40;;;;;;5030780;28;20223;-71
2022/11/16 10:20:36;;;;;;;1.40;1.00;;;17.90;82.30;;;;;;5014117;28;20222;-71
2022/11/16 10:23:49;;;;;;;1.63;0.93;;;17.90;82.30;;;;;;5016488;28;20249;-71
2022/11/16 10:26:33;;;;;;;0.98;0.90;;;17.90;82.30;;;;;;5014116;28;20274;-71
2022/11/16 10:29:35;;;;;;;1.25;1.00;;;17.90;82.70;;;;;;5015366;28;20188;-71
2022/11/16 10:32:12;;;;;;;1.05;0.95;;;17.90;82.70;;;;;;5013800;28;20190;-71
2022/11/16 10:35:04;;;;;;;1.92;1.05;;;17.90;82.30;;;;;;5013822;28;20215;-71
2022/11/16 10:37:35;;;;;;;1.73;1.10;;;17.90;82.30;;;;;;4993018;28;20222;-70
2022/11/16 10:40:28;;;;;;;1.00;0.90;;;17.90;82.30;;;;;;5013828;28;20192;-70
2022/11/16 10:43:15;;;;;;;1.95;1.13;;;17.90;82.30;;;;;;5013984;28;20188;-70
2022/11/16 10:46:22;;;;;;;1.65;0.75;;;17.90;82.30;;;;;;5013706;28;20249;-71
2022/11/16 10:49:18;;;;;;;2.45;1.00;;;17.90;82.30;;;;;;4986542;28;20216;-71
2022/11/16 10:51:43;;;;;;;1.50;1.10;;;17.90;82.30;;;;;;5014810;28;20271;-71
2022/11/16 10:54:14;;;;;;;1.98;1.10;;;17.90;82.30;;;;;;5013673;28;20230;-71
2022/11/16 10:56:54;;;;;;;1.27;0.80;;;17.90;82.00;;;;;;5013523;28;20187;-71
2022/11/16 10:59:20;;;;;;;1.00;0.90;;;17.90;82.10;;;;;;5014684;28;20673;-71
2022/11/16 11:01:49;;;;;;;0.95;0.80;;;17.90;82.00;;;;;;5013380;28;20185;-71
2022/11/16 11:04:24;;;;;;;1.27;1.00;;;17.90;81.80;;;;;;5013298;28;20184;-71
2022/11/16 11:06:57;;;;;;;2.13;1.05;;;17.90;82.00;;;;;;5013304;28;20261;-71
2022/11/16 11:09:27;;;;;;;1.08;0.82;;;17.90;81.90;;;;;;4996659;28;20200;-71
2022/11/16 11:15:02;;;;;;;1.20;0.80;;;17.90;81.90;;;;;;5013010;28;20235;-71
2022/11/16 11:17:31;;;;;;;0.80;0.80;;;17.90;81.70;;;;;;5014405;28;20204;-71
2022/11/16 11:20:00;;;;;;;1.55;0.95;;;17.90;81.80;;;;;;5013123;28;20219;-71
2022/11/16 11:22:27;;;;;;;1.33;0.90;;;17.90;81.60;;;;;;5012914;28;20180;-71
2022/11/16 11:24:53;;;;;;;0.98;0.80;;;17.90;81.70;;;;;;5017824;28;20198;-71
2022/11/16 11:27:33;;;;;;;1.20;1.00;;;17.90;81.60;;;;;;5032540;28;20214;-71
2022/11/16 11:30:00;;;;;;;0.90;0.80;;;17.90;81.60;;;;;;5032851;28;20179;-71
2022/11/16 11:32:37;;;;;;;1.52;1.00;;;17.90;81.50;;;;;;5016000;28;20187;-71
2022/11/16 11:35:05;;;;;;;0.95;0.77;;;17.90;81.20;;;;;;5032636;28;20250;-71
2022/11/16 11:37:38;;;;;;;1.33;0.77;;;17.90;81.60;;;;;;5032654;28;20292;-71
2022/11/16 11:40:28;;;;;;;0.68;0.68;;;17.90;81.40;;;;;;5032644;28;20183;-71
2022/11/16 11:42:58;;;;;;;1.42;0.80;;;17.90;81.30;;;;;;5032522;28;20172;-71
2022/11/16 11:46:04;;;;;;;0.90;0.80;;;17.90;81.50;;;;;;5034011;28;20198;-70
2022/11/16 11:49:02;;;;;;;1.00;0.90;;;17.90;81.30;;;;;;5024531;28;20225;-71
2022/11/16 11:51:38;;;;;;;1.00;0.88;;;17.90;81.30;;;;;;5032904;28;20229;-71
2022/11/16 11:54:16;;;;;;;1.70;0.80;;;17.90;81.10;;;;;;5016012;28;20682;-71
2022/11/16 11:56:42;;;;;;;0.93;0.75;;;17.90;81.10;;;;;;5032894;28;20274;-70
2022/11/16 11:59:19;;;;;;;1.25;1.00;;;17.90;81.20;;;;;;5016151;28;20278;-71
2022/11/16 12:02:15;;;;;;;0.85;0.80;;;17.90;81.10;;;;;;5015921;28;20229;-71
2022/11/16 12:04:57;;;;;;;0.73;0.70;;;17.90;80.90;;;;;;5032536;28;20187;-70
2022/11/16 12:07:58;;;;;;;1.40;0.80;;;17.90;81.00;;;;;;5033698;28;20211;-71
2022/11/16 12:10:50;;;;;;;1.00;0.80;;;17.90;80.90;;;;;;5016056;28;20309;-71
2022/11/16 12:13:57;;;;;;;0.70;0.70;;;17.90;80.90;;;;;;5032140;28;20180;-71
2022/11/16 12:16:59;;;;;;;0.60;0.60;;;17.90;80.80;;;;;;5032287;28;20211;-71
2022/11/16 12:19:43;;;;;;;1.67;0.80;;;17.90;80.70;;;;;;5032821;28;20245;-70
2022/11/16 12:22:19;;;;;;;0.77;0.70;;;17.90;80.40;;;;;;5015715;28;20209;-70
2022/11/16 12:25:23;;;;;;;0.70;0.70;;;17.90;80.80;;;;;;5030511;28;20606;-71
2022/11/16 12:28:44;;;;;;;0.77;0.70;;;17.90;80.70;;;;;;5031897;28;20283;-71
2022/11/16 12:31:27;;;;;;;1.10;0.80;;;17.90;80.70;;;;;;5032115;28;20207;-71
2022/11/16 12:34:14;;;;;;;1.13;0.70;;;17.90;80.90;;;;;;5015221;28;20254;-70
2022/11/16 12:37:07;;;;;;;0.80;0.70;;;17.90;80.70;;;;;;5015691;28;20246;-70
2022/11/16 12:39:43;;;;;;;0.60;0.60;;;17.90;80.60;;;;;;5015529;28;20183;-71
2022/11/16 12:42:28;;;;;;;1.17;0.60;;;17.90;80.60;;;;;;5015417;28;20266;-70
2022/11/16 12:45:02;;;;;;;1.08;0.77;;;17.90;80.70;;;;;;5031772;28;20172;-71
2022/11/16 12:47:58;;;;;;;0.93;0.80;;;17.90;80.70;;;;;;5031846;28;20293;-71
2022/11/16 12:50:39;;;;;;;1.30;0.77;;;17.90;80.60;;;;;;5032862;28;20174;-70
2022/11/16 12:53:33;;;;;;;1.40;0.73;;;17.90;80.50;;;;;;5031746;28;20221;-70
2022/11/16 12:56:31;;;;;;;0.70;0.70;;;17.90;80.20;;;;;;5031700;28;20538;-71
2022/11/16 12:59:11;;;;;;;0.70;0.70;;;17.90;80.40;;;;;;5032873;28;20199;-71
2022/11/16 13:02:10;;;;;;;1.00;0.90;;;17.90;80.50;;;;;;5031580;28;20223;-71
2022/11/16 13:04:47;;;;;;;1.23;0.70;;;17.90;80.40;;;;;;5031403;28;20180;-70
2022/11/16 13:07:39;;;;;;;1.42;0.82;;;17.90;80.90;;;;;;5030893;28;20214;-69
2022/11/16 13:10:33;;;;;;;1.50;0.70;;;17.90;80.40;;;;;;5031063;28;20187;-71
2022/11/16 13:13:08;;;;;;;0.95;0.80;;;17.90;80.50;;;;;;5030534;28;20670;-71
2022/11/16 13:15:39;;;;;;;0.77;0.77;;;17.90;80.50;;;;;;5030348;28;20286;-71
2022/11/16 13:18:12;;;;;;;1.00;0.70;;;17.90;80.30;;;;;;5030862;28;20202;-71
2022/11/16 13:20:47;;;;;;;0.60;0.52;;;17.90;80.30;;;;;;5030806;28;20188;-71
2022/11/16 13:23:32;;;;;;;0.88;0.68;;;17.90;80.50;;;;;;5014399;28;20187;-71
2022/11/16 13:26:09;;;;;;;1.50;0.80;;;18.00;80.60;;;;;;5014261;28;20187;-71
2022/11/16 13:28:58;;;;;;;0.80;0.70;;;17.90;80.30;;;;;;5014086;28;20261;-71
2022/11/16 13:31:37;;;;;;;0.65;0.65;;;17.90;80.20;;;;;;5010844;28;20193;-71
2022/11/16 13:34:24;;;;;;;1.23;0.80;;;17.90;80.40;;;;;;5014007;28;20425;-71
2022/11/16 13:36:50;;;;;;;0.65;0.60;;;17.90;80.30;;;;;;5030778;28;20238;-71
2022/11/16 13:39:39;;;;;;;1.27;0.68;;;17.90;80.20;;;;;;5030577;28;20244;-71
2022/11/16 13:42:11;;;;;;;1.00;0.70;;;17.90;80.30;;;;;;5013910;28;20191;-71
2022/11/16 13:44:38;;;;;;;1.35;0.75;;;17.90;80.20;;;;;;5030556;28;20187;-71
2022/11/16 13:47:20;;;;;;;0.80;0.70;;;17.90;80.10;;;;;;5030442;28;20288;-71
2022/11/16 13:50:00;;;;;;;1.05;0.63;;;17.90;80.10;;;;;;5014208;28;20202;-71
2022/11/16 13:52:49;;;;;;;1.35;0.77;;;17.90;80.20;;;;;;5030250;28;20789;-71
2022/11/16 13:55:30;;;;;;;1.77;0.80;;;17.90;80.00;;;;;;5030595;28;20211;-71
2022/11/16 13:57:59;;;;;;;1.35;0.88;;;17.90;80.20;;;;;;5030340;28;20203;-71
2022/11/16 14:00:30;;;;;;;0.75;0.70;;;17.90;80.10;;;;;;5030418;28;20187;-71
2022/11/16 14:03:16;;;;;;;1.13;0.70;;;17.90;80.20;;;;;;5013852;28;20206;-71
2022/11/16 14:05:48;;;;;;;0.88;0.70;;;17.90;80.20;;;;;;5014519;28;20197;-71
2022/11/16 14:08:23;;;;;;;2.05;0.93;;;17.90;80.30;;;;;;5030292;28;20209;-71